sensor_id;sensor_type;location;lat;lon;timestamp;temperature;humidity
4002;DHT22;2015;48.670;9.060;2023-11-18T00:01:18;4.80;99.90
4002;DHT22;2015;48.670;9.060;2023-11-18T00:03:50;4.80;99.90
4002;DHT22;2015;48.670;9.060;2023-11-18T00:06:22;4.80;99.90
4002;DHT22;2015;48.670;9.060;2023-11-18T00:08:54;4.80;99.90
4002;DHT22;2015;48.670;9.060;2023-11-18T00:11:26;4.90;99.90
4002;DHT22;2015;48.670;9.060;2023-11-18T00:13:58;4.90;99.90
4002;DHT22;2015;48.670;9.060;2023-11-18T00:16:31;4.90;99.90
4002;DHT22;2015;48.670;9.060;2023-11-18T00:19:03;5.00;99.90
4002;DHT22;2015;48.670;9.060;2023-11-18T00:21:36;5.00;99.90
4002;DHT22;2015;48.670;9.060;2023-11-18T00:24:08;5.10;99.90
4002;DHT22;2015;48.670;9.060;2023-11-18T00:26:40;5.00;99.90
4002;DHT22;2015;48.670;9.060;2023-11-18T00:29:12;5.00;99.90
4002;DHT22;2015;48.670;9.060;2023-11-18T00:31:44;4.90;99.90
4002;DHT22;2015;48.670;9.060;2023-11-18T00:34:15;4.90;99.90
4002;DHT22;2015;48.670;9.060;2023-11-18T00:36:47;4.90;99.90
4002;DHT22;2015;48.670;9.060;2023-11-18T00:39:19;4.90;99.90
4002;DHT22;2015;48.670;9.060;2023-11-18T00:41:52;4.90;99.90
4002;DHT22;2015;48.670;9.060;2023-11-18T00:44:24;4.70;99.90
4002;DHT22;2015;48.670;9.060;2023-11-18T00:46:55;4.60;99.90
4002;DHT22;2015;48.670;9.060;2023-11-18T00:49:29;4.70;99.90
4002;DHT22;2015;48.670;9.060;2023-11-18T00:52:01;4.70;99.90
4002;DHT22;2015;48.670;9.060;2023-11-18T00:54:34;4.80;99.90
4002;DHT22;2015;48.670;9.060;2023-11-18T00:57:06;4.80;99.90
4002;DHT22;2015;48.670;9.060;2023-11-18T00:59:42;4.90;99.90
4002;DHT22;2015;48.670;9.060;2023-11-18T01:02:14;4.90;99.90
4002;DHT22;2015;48.670;9.060;2023-11-18T01:04:46;4.90;99.90
4002;DHT22;2015;48.670;9.060;2023-11-18T01:07:18;5.00;99.90
4002;DHT22;2015;48.670;9.060;2023-11-18T01:09:49;5.00;99.90
4002;DHT22;2015;48.670;9.060;2023-11-18T01:12:21;5.00;99.90
4002;DHT22;2015;48.670;9.060;2023-11-18T01:14:53;5.00;99.90
4002;DHT22;2015;48.670;9.060;2023-11-18T01:17:25;5.00;99.90
4002;DHT22;2015;48.670;9.060;2023-11-18T01:19:57;5.00;99.90
4002;DHT22;2015;48.670;9.060;2023-11-18T01:22:29;5.00;99.90
4002;DHT22;2015;48.670;9.060;2023-11-18T01:25:01;4.90;99.90
4002;DHT22;2015;48.670;9.060;2023-11-18T01:27:33;5.00;99.90
4002;DHT22;2015;48.670;9.060;2023-11-18T01:30:06;5.00;99.90
4002;DHT22;2015;48.670;9.060;2023-11-18T01:32:38;4.90;99.90
4002;DHT22;2015;48.670;9.060;2023-11-18T01:35:12;4.90;99.90
4002;DHT22;2015;48.670;9.060;2023-11-18T01:37:44;4.90;99.90
4002;DHT22;2015;48.670;9.060;2023-11-18T01:40:16;4.80;99.90
4002;DHT22;2015;48.670;9.060;2023-11-18T01:42:47;4.90;99.90
4002;DHT22;2015;48.670;9.060;2023-11-18T01:45:19;4.90;99.90
4002;DHT22;2015;48.670;9.060;2023-11-18T01:47:51;4.90;99.90
4002;DHT22;2015;48.670;9.060;2023-11-18T01:50:24;4.90;99.90
4002;DHT22;2015;48.670;9.060;2023-11-18T01:52:59;4.90;99.90
4002;DHT22;2015;48.670;9.060;2023-11-18T01:55:33;5.00;99.90
4002;DHT22;2015;48.670;9.060;2023-11-18T01:58:06;5.00;99.90
4002;DHT22;2015;48.670;9.060;2023-11-18T02:00:42;5.00;99.90
4002;DHT22;2015;48.670;9.060;2023-11-18T02:03:14;5.00;99.90
4002;DHT22;2015;48.670;9.060;2023-11-18T02:05:46;5.00;99.90
4002;DHT22;2015;48.670;9.060;2023-11-18T02:08:18;4.90;99.90
4002;DHT22;2015;48.670;9.060;2023-11-18T02:11:05;4.80;99.90
4002;DHT22;2015;48.670;9.060;2023-11-18T02:13:47;4.80;99.90
4002;DHT22;2015;48.670;9.060;2023-11-18T02:16:20;4.80;99.90
4002;DHT22;2015;48.670;9.060;2023-11-18T02:18:52;4.80;99.90
4002;DHT22;2015;48.670;9.060;2023-11-18T02:21:26;4.90;99.90
4002;DHT22;2015;48.670;9.060;2023-11-18T02:23:58;4.90;99.90
4002;DHT22;2015;48.670;9.060;2023-11-18T02:26:30;5.00;99.90
4002;DHT22;2015;48.670;9.060;2023-11-18T02:29:01;4.90;99.90
4002;DHT22;2015;48.670;9.060;2023-11-18T02:31:34;5.00;99.90
4002;DHT22;2015;48.670;9.060;2023-11-18T02:34:14;5.10;99.90
4002;DHT22;2015;48.670;9.060;2023-11-18T02:36:49;5.20;99.90
4002;DHT22;2015;48.670;9.060;2023-11-18T02:39:35;5.10;99.90
4002;DHT22;2015;48.670;9.060;2023-11-18T02:42:12;5.10;99.90
4002;DHT22;2015;48.670;9.060;2023-11-18T02:44:45;5.10;99.90
4002;DHT22;2015;48.670;9.060;2023-11-18T02:47:17;5.10;99.90
4002;DHT22;2015;48.670;9.060;2023-11-18T02:49:54;5.10;99.90
4002;DHT22;2015;48.670;9.060;2023-11-18T02:52:26;5.10;99.90
4002;DHT22;2015;48.670;9.060;2023-11-18T02:54:58;5.00;99.90
4002;DHT22;2015;48.670;9.060;2023-11-18T02:57:31;4.90;99.90
4002;DHT22;2015;48.670;9.060;2023-11-18T03:00:04;4.80;99.90
4002;DHT22;2015;48.670;9.060;2023-11-18T03:02:36;4.60;99.90
4002;DHT22;2015;48.670;9.060;2023-11-18T03:05:11;4.60;99.90
4002;DHT22;2015;48.670;9.060;2023-11-18T03:07:44;4.50;99.90
4002;DHT22;2015;48.670;9.060;2023-11-18T03:10:19;4.50;99.90
4002;DHT22;2015;48.670;9.060;2023-11-18T03:12:54;4.40;99.90
4002;DHT22;2015;48.670;9.060;2023-11-18T03:15:26;4.50;99.90
4002;DHT22;2015;48.670;9.060;2023-11-18T03:17:58;4.30;99.90
4002;DHT22;2015;48.670;9.060;2023-11-18T03:20:30;4.20;99.90
4002;DHT22;2015;48.670;9.060;2023-11-18T03:23:02;4.10;99.90
4002;DHT22;2015;48.670;9.060;2023-11-18T03:25:33;4.00;99.90
4002;DHT22;2015;48.670;9.060;2023-11-18T03:28:05;3.90;99.90
4002;DHT22;2015;48.670;9.060;2023-11-18T03:30:38;3.90;99.90
4002;DHT22;2015;48.670;9.060;2023-11-18T03:33:10;3.90;99.90
4002;DHT22;2015;48.670;9.060;2023-11-18T03:35:42;3.90;99.90
4002;DHT22;2015;48.670;9.060;2023-11-18T03:38:14;3.90;99.90
4002;DHT22;2015;48.670;9.060;2023-11-18T03:40:48;3.80;99.90
4002;DHT22;2015;48.670;9.060;2023-11-18T03:43:20;3.70;99.90
4002;DHT22;2015;48.670;9.060;2023-11-18T03:45:52;3.60;99.90
4002;DHT22;2015;48.670;9.060;2023-11-18T03:48:28;3.50;99.90
4002;DHT22;2015;48.670;9.060;2023-11-18T03:51:00;3.70;99.90
4002;DHT22;2015;48.670;9.060;2023-11-18T03:53:32;3.70;99.90
4002;DHT22;2015;48.670;9.060;2023-11-18T03:56:05;3.60;99.90
4002;DHT22;2015;48.670;9.060;2023-11-18T03:58:37;3.50;99.90
4002;DHT22;2015;48.670;9.060;2023-11-18T04:01:09;3.40;99.90
4002;DHT22;2015;48.670;9.060;2023-11-18T04:03:42;3.50;99.90
4002;DHT22;2015;48.670;9.060;2023-11-18T04:06:14;3.50;99.90
4002;DHT22;2015;48.670;9.060;2023-11-18T04:08:48;3.60;99.90
4002;DHT22;2015;48.670;9.060;2023-11-18T04:11:20;3.60;99.90
4002;DHT22;2015;48.670;9.060;2023-11-18T04:13:51;3.70;99.90
4002;DHT22;2015;48.670;9.060;2023-11-18T04:16:24;3.70;99.90
4002;DHT22;2015;48.670;9.060;2023-11-18T04:18:56;3.70;99.90
4002;DHT22;2015;48.670;9.060;2023-11-18T04:21:27;3.70;99.90
4002;DHT22;2015;48.670;9.060;2023-11-18T04:23:59;3.70;99.90
4002;DHT22;2015;48.670;9.060;2023-11-18T04:26:31;3.80;99.90
4002;DHT22;2015;48.670;9.060;2023-11-18T04:29:03;3.80;99.90
4002;DHT22;2015;48.670;9.060;2023-11-18T04:31:35;3.90;99.90
4002;DHT22;2015;48.670;9.060;2023-11-18T04:34:08;3.90;99.90
4002;DHT22;2015;48.670;9.060;2023-11-18T04:36:43;4.00;99.90
4002;DHT22;2015;48.670;9.060;2023-11-18T04:39:15;4.00;99.90
4002;DHT22;2015;48.670;9.060;2023-11-18T04:41:47;4.00;99.90
4002;DHT22;2015;48.670;9.060;2023-11-18T04:44:19;4.10;99.90
4002;DHT22;2015;48.670;9.060;2023-11-18T04:46:51;4.10;99.90
4002;DHT22;2015;48.670;9.060;2023-11-18T04:49:23;4.10;99.90
4002;DHT22;2015;48.670;9.060;2023-11-18T04:51:55;4.10;99.90
4002;DHT22;2015;48.670;9.060;2023-11-18T04:54:27;4.10;99.90
4002;DHT22;2015;48.670;9.060;2023-11-18T04:56:59;4.20;99.90
4002;DHT22;2015;48.670;9.060;2023-11-18T04:59:31;4.30;99.90
4002;DHT22;2015;48.670;9.060;2023-11-18T05:02:03;4.30;99.90
4002;DHT22;2015;48.670;9.060;2023-11-18T05:04:34;4.30;99.90
4002;DHT22;2015;48.670;9.060;2023-11-18T05:07:07;4.30;99.90
4002;DHT22;2015;48.670;9.060;2023-11-18T05:09:39;4.20;99.90
4002;DHT22;2015;48.670;9.060;2023-11-18T05:12:10;4.10;99.90
4002;DHT22;2015;48.670;9.060;2023-11-18T05:14:42;4.10;99.90
4002;DHT22;2015;48.670;9.060;2023-11-18T05:17:14;4.10;99.90
4002;DHT22;2015;48.670;9.060;2023-11-18T05:19:46;4.00;99.90
4002;DHT22;2015;48.670;9.060;2023-11-18T05:22:18;4.00;99.90
4002;DHT22;2015;48.670;9.060;2023-11-18T05:24:49;4.00;99.90
4002;DHT22;2015;48.670;9.060;2023-11-18T05:27:21;4.00;99.90
4002;DHT22;2015;48.670;9.060;2023-11-18T05:29:53;4.00;99.90
4002;DHT22;2015;48.670;9.060;2023-11-18T05:32:30;4.00;99.90
4002;DHT22;2015;48.670;9.060;2023-11-18T05:35:03;3.90;99.90
4002;DHT22;2015;48.670;9.060;2023-11-18T05:37:36;3.90;99.90
4002;DHT22;2015;48.670;9.060;2023-11-18T05:40:10;3.90;99.90
4002;DHT22;2015;48.670;9.060;2023-11-18T05:42:43;3.90;99.90
4002;DHT22;2015;48.670;9.060;2023-11-18T05:45:18;3.90;99.90
4002;DHT22;2015;48.670;9.060;2023-11-18T05:47:59;4.00;99.90
4002;DHT22;2015;48.670;9.060;2023-11-18T05:50:31;3.90;99.90
4002;DHT22;2015;48.670;9.060;2023-11-18T05:53:03;4.00;99.90
4002;DHT22;2015;48.670;9.060;2023-11-18T05:55:35;4.00;99.90
4002;DHT22;2015;48.670;9.060;2023-11-18T05:58:07;4.00;99.90
4002;DHT22;2015;48.670;9.060;2023-11-18T06:00:40;4.00;99.90
4002;DHT22;2015;48.670;9.060;2023-11-18T06:03:12;4.00;99.90
4002;DHT22;2015;48.670;9.060;2023-11-18T06:05:44;4.00;99.90
4002;DHT22;2015;48.670;9.060;2023-11-18T06:08:16;4.00;99.90
4002;DHT22;2015;48.670;9.060;2023-11-18T06:10:48;3.90;99.90
4002;DHT22;2015;48.670;9.060;2023-11-18T06:13:20;3.90;99.90
4002;DHT22;2015;48.670;9.060;2023-11-18T06:15:52;3.90;99.90
4002;DHT22;2015;48.670;9.060;2023-11-18T06:18:24;3.80;99.90
4002;DHT22;2015;48.670;9.060;2023-11-18T06:20:56;3.70;99.90
4002;DHT22;2015;48.670;9.060;2023-11-18T06:23:28;3.70;99.90
4002;DHT22;2015;48.670;9.060;2023-11-18T06:25:59;3.60;99.90
4002;DHT22;2015;48.670;9.060;2023-11-18T06:28:31;3.50;99.90
4002;DHT22;2015;48.670;9.060;2023-11-18T06:31:05;3.60;99.90
4002;DHT22;2015;48.670;9.060;2023-11-18T06:33:44;3.50;99.90
4002;DHT22;2015;48.670;9.060;2023-11-18T06:38:52;3.40;99.90
4002;DHT22;2015;48.670;9.060;2023-11-18T06:41:25;3.40;99.90
4002;DHT22;2015;48.670;9.060;2023-11-18T06:44:06;3.30;99.90
4002;DHT22;2015;48.670;9.060;2023-11-18T06:46:44;3.30;99.90
4002;DHT22;2015;48.670;9.060;2023-11-18T06:49:16;3.30;99.90
4002;DHT22;2015;48.670;9.060;2023-11-18T06:51:48;3.50;99.90
4002;DHT22;2015;48.670;9.060;2023-11-18T06:54:20;3.50;99.90
4002;DHT22;2015;48.670;9.060;2023-11-18T06:56:51;3.70;99.90
4002;DHT22;2015;48.670;9.060;2023-11-18T06:59:24;3.80;99.90
4002;DHT22;2015;48.670;9.060;2023-11-18T07:01:56;3.80;99.90
4002;DHT22;2015;48.670;9.060;2023-11-18T07:04:27;3.90;99.90
4002;DHT22;2015;48.670;9.060;2023-11-18T07:06:59;4.00;99.90
4002;DHT22;2015;48.670;9.060;2023-11-18T07:09:31;4.00;99.90
4002;DHT22;2015;48.670;9.060;2023-11-18T07:12:07;4.10;99.90
4002;DHT22;2015;48.670;9.060;2023-11-18T07:14:39;4.10;99.90
4002;DHT22;2015;48.670;9.060;2023-11-18T07:17:11;4.10;99.90
4002;DHT22;2015;48.670;9.060;2023-11-18T07:19:43;4.10;99.90
4002;DHT22;2015;48.670;9.060;2023-11-18T07:22:14;4.20;99.90
4002;DHT22;2015;48.670;9.060;2023-11-18T07:24:46;4.20;99.90
4002;DHT22;2015;48.670;9.060;2023-11-18T07:27:18;4.30;99.90
4002;DHT22;2015;48.670;9.060;2023-11-18T07:29:50;4.40;99.90
4002;DHT22;2015;48.670;9.060;2023-11-18T07:32:22;4.50;99.90
4002;DHT22;2015;48.670;9.060;2023-11-18T07:34:54;4.50;99.90
4002;DHT22;2015;48.670;9.060;2023-11-18T07:37:27;4.50;99.90
4002;DHT22;2015;48.670;9.060;2023-11-18T07:39:59;4.60;99.90
4002;DHT22;2015;48.670;9.060;2023-11-18T07:42:32;4.60;99.90
4002;DHT22;2015;48.670;9.060;2023-11-18T07:45:07;4.60;99.90
4002;DHT22;2015;48.670;9.060;2023-11-18T07:47:50;4.60;99.90
4002;DHT22;2015;48.670;9.060;2023-11-18T07:50:22;4.60;99.90
4002;DHT22;2015;48.670;9.060;2023-11-18T07:52:54;4.60;99.90
4002;DHT22;2015;48.670;9.060;2023-11-18T07:55:27;4.70;99.90
4002;DHT22;2015;48.670;9.060;2023-11-18T07:58:00;4.70;99.90
4002;DHT22;2015;48.670;9.060;2023-11-18T08:00:33;4.70;99.90
4002;DHT22;2015;48.670;9.060;2023-11-18T08:03:07;4.70;99.90
4002;DHT22;2015;48.670;9.060;2023-11-18T08:05:44;4.70;99.90
4002;DHT22;2015;48.670;9.060;2023-11-18T08:08:16;4.70;99.90
4002;DHT22;2015;48.670;9.060;2023-11-18T08:10:48;4.80;99.90
4002;DHT22;2015;48.670;9.060;2023-11-18T08:13:22;4.80;99.90
4002;DHT22;2015;48.670;9.060;2023-11-18T08:15:53;4.90;99.90
4002;DHT22;2015;48.670;9.060;2023-11-18T08:18:25;5.00;99.90
4002;DHT22;2015;48.670;9.060;2023-11-18T08:20:59;5.10;99.90
4002;DHT22;2015;48.670;9.060;2023-11-18T08:23:32;5.10;99.90
4002;DHT22;2015;48.670;9.060;2023-11-18T08:26:04;5.20;99.90
4002;DHT22;2015;48.670;9.060;2023-11-18T08:28:37;5.20;99.90
4002;DHT22;2015;48.670;9.060;2023-11-18T08:31:09;5.20;99.90
4002;DHT22;2015;48.670;9.060;2023-11-18T08:33:42;5.30;99.90
4002;DHT22;2015;48.670;9.060;2023-11-18T08:36:14;5.30;99.90
4002;DHT22;2015;48.670;9.060;2023-11-18T08:38:46;5.30;99.90
4002;DHT22;2015;48.670;9.060;2023-11-18T08:41:18;5.40;99.90
4002;DHT22;2015;48.670;9.060;2023-11-18T08:43:51;5.40;99.90
4002;DHT22;2015;48.670;9.060;2023-11-18T08:46:23;5.40;99.90
4002;DHT22;2015;48.670;9.060;2023-11-18T08:48:56;5.40;99.90
4002;DHT22;2015;48.670;9.060;2023-11-18T08:51:28;5.40;99.90
4002;DHT22;2015;48.670;9.060;2023-11-18T08:54:00;5.40;99.90
4002;DHT22;2015;48.670;9.060;2023-11-18T08:56:33;5.50;99.90
4002;DHT22;2015;48.670;9.060;2023-11-18T08:59:06;5.60;99.90
4002;DHT22;2015;48.670;9.060;2023-11-18T09:01:42;5.60;99.90
4002;DHT22;2015;48.670;9.060;2023-11-18T09:04:13;5.60;99.90
4002;DHT22;2015;48.670;9.060;2023-11-18T09:06:46;5.70;99.90
4002;DHT22;2015;48.670;9.060;2023-11-18T09:09:22;5.70;99.90
4002;DHT22;2015;48.670;9.060;2023-11-18T09:12:00;5.90;99.90
4002;DHT22;2015;48.670;9.060;2023-11-18T09:14:34;6.00;99.90
4002;DHT22;2015;48.670;9.060;2023-11-18T09:17:05;6.20;99.90
4002;DHT22;2015;48.670;9.060;2023-11-18T09:19:38;6.30;99.90
4002;DHT22;2015;48.670;9.060;2023-11-18T09:22:10;6.40;99.90
4002;DHT22;2015;48.670;9.060;2023-11-18T09:24:44;6.40;99.90
4002;DHT22;2015;48.670;9.060;2023-11-18T09:27:16;6.50;99.90
4002;DHT22;2015;48.670;9.060;2023-11-18T09:29:48;6.60;99.90
4002;DHT22;2015;48.670;9.060;2023-11-18T09:32:23;6.50;99.90
4002;DHT22;2015;48.670;9.060;2023-11-18T09:34:57;6.50;99.90
4002;DHT22;2015;48.670;9.060;2023-11-18T09:37:30;6.60;99.90
4002;DHT22;2015;48.670;9.060;2023-11-18T09:40:02;6.50;99.90
4002;DHT22;2015;48.670;9.060;2023-11-18T09:42:43;6.60;99.90
4002;DHT22;2015;48.670;9.060;2023-11-18T09:45:17;6.70;99.90
4002;DHT22;2015;48.670;9.060;2023-11-18T09:47:51;6.80;99.90
4002;DHT22;2015;48.670;9.060;2023-11-18T09:50:27;6.90;99.90
4002;DHT22;2015;48.670;9.060;2023-11-18T09:53:02;7.10;99.90
4002;DHT22;2015;48.670;9.060;2023-11-18T09:55:54;7.40;99.90
4002;DHT22;2015;48.670;9.060;2023-11-18T09:58:40;7.70;99.90
4002;DHT22;2015;48.670;9.060;2023-11-18T10:01:13;8.00;99.90
4002;DHT22;2015;48.670;9.060;2023-11-18T10:03:50;8.10;99.90
4002;DHT22;2015;48.670;9.060;2023-11-18T10:06:23;8.30;99.90
4002;DHT22;2015;48.670;9.060;2023-11-18T10:08:57;8.40;99.90
4002;DHT22;2015;48.670;9.060;2023-11-18T10:11:49;8.50;99.90
4002;DHT22;2015;48.670;9.060;2023-11-18T10:14:21;8.50;99.90
4002;DHT22;2015;48.670;9.060;2023-11-18T10:16:52;8.40;99.90
4002;DHT22;2015;48.670;9.060;2023-11-18T10:19:25;8.40;99.90
4002;DHT22;2015;48.670;9.060;2023-11-18T10:21:57;8.20;99.90
4002;DHT22;2015;48.670;9.060;2023-11-18T10:24:44;8.10;99.90
4002;DHT22;2015;48.670;9.060;2023-11-18T10:27:16;8.00;99.90
4002;DHT22;2015;48.670;9.060;2023-11-18T10:29:49;7.90;99.90
4002;DHT22;2015;48.670;9.060;2023-11-18T10:32:23;8.10;99.90
4002;DHT22;2015;48.670;9.060;2023-11-18T10:34:59;8.00;99.90
4002;DHT22;2015;48.670;9.060;2023-11-18T10:37:33;8.00;99.90
4002;DHT22;2015;48.670;9.060;2023-11-18T10:40:05;8.00;99.90
4002;DHT22;2015;48.670;9.060;2023-11-18T10:42:37;8.00;99.90
4002;DHT22;2015;48.670;9.060;2023-11-18T10:45:10;8.10;99.90
4002;DHT22;2015;48.670;9.060;2023-11-18T10:47:46;8.30;99.90
4002;DHT22;2015;48.670;9.060;2023-11-18T10:50:19;8.40;99.90
4002;DHT22;2015;48.670;9.060;2023-11-18T10:52:53;8.40;99.90
4002;DHT22;2015;48.670;9.060;2023-11-18T10:55:35;8.50;99.90
4002;DHT22;2015;48.670;9.060;2023-11-18T10:58:07;8.50;99.90
4002;DHT22;2015;48.670;9.060;2023-11-18T11:00:50;8.50;99.90
4002;DHT22;2015;48.670;9.060;2023-11-18T11:03:23;8.60;99.90
4002;DHT22;2015;48.670;9.060;2023-11-18T11:05:55;8.50;99.90
4002;DHT22;2015;48.670;9.060;2023-11-18T11:08:27;8.40;99.90
4002;DHT22;2015;48.670;9.060;2023-11-18T11:11:12;8.30;99.90
4002;DHT22;2015;48.670;9.060;2023-11-18T11:13:49;8.20;99.90
4002;DHT22;2015;48.670;9.060;2023-11-18T11:16:37;8.10;99.90
4002;DHT22;2015;48.670;9.060;2023-11-18T11:19:25;7.90;99.90
4002;DHT22;2015;48.670;9.060;2023-11-18T11:22:04;7.80;99.90
4002;DHT22;2015;48.670;9.060;2023-11-18T11:27:29;7.70;99.90
4002;DHT22;2015;48.670;9.060;2023-11-18T11:30:33;7.80;99.90
4002;DHT22;2015;48.670;9.060;2023-11-18T11:33:14;7.70;99.90
4002;DHT22;2015;48.670;9.060;2023-11-18T11:35:55;7.80;99.90
4002;DHT22;2015;48.670;9.060;2023-11-18T11:38:28;7.80;99.90
4002;DHT22;2015;48.670;9.060;2023-11-18T11:41:02;7.80;99.90
4002;DHT22;2015;48.670;9.060;2023-11-18T11:43:37;7.70;99.90
4002;DHT22;2015;48.670;9.060;2023-11-18T11:46:12;7.80;99.90
4002;DHT22;2015;48.670;9.060;2023-11-18T11:48:45;7.70;99.90
4002;DHT22;2015;48.670;9.060;2023-11-18T11:51:26;7.60;99.90
4002;DHT22;2015;48.670;9.060;2023-11-18T11:54:11;7.60;99.90
4002;DHT22;2015;48.670;9.060;2023-11-18T11:56:50;7.50;99.90
4002;DHT22;2015;48.670;9.060;2023-11-18T11:59:54;7.50;99.90
4002;DHT22;2015;48.670;9.060;2023-11-18T12:02:27;7.50;99.90
4002;DHT22;2015;48.670;9.060;2023-11-18T12:05:05;7.40;99.90
4002;DHT22;2015;48.670;9.060;2023-11-18T12:07:40;7.40;99.90
4002;DHT22;2015;48.670;9.060;2023-11-18T12:10:12;7.50;99.90
4002;DHT22;2015;48.670;9.060;2023-11-18T12:13:10;7.60;99.90
4002;DHT22;2015;48.670;9.060;2023-11-18T12:15:49;7.70;99.90
4002;DHT22;2015;48.670;9.060;2023-11-18T12:18:35;7.70;99.90
4002;DHT22;2015;48.670;9.060;2023-11-18T12:21:08;7.80;99.90
4002;DHT22;2015;48.670;9.060;2023-11-18T12:24:16;7.80;99.90
4002;DHT22;2015;48.670;9.060;2023-11-18T12:26:53;7.80;99.90
4002;DHT22;2015;48.670;9.060;2023-11-18T12:29:34;7.80;99.90
4002;DHT22;2015;48.670;9.060;2023-11-18T12:32:06;7.80;99.90
4002;DHT22;2015;48.670;9.060;2023-11-18T12:34:53;7.80;99.90
4002;DHT22;2015;48.670;9.060;2023-11-18T12:43:46;7.90;99.90
4002;DHT22;2015;48.670;9.060;2023-11-18T12:49:14;7.90;99.90
4002;DHT22;2015;48.670;9.060;2023-11-18T12:51:49;8.00;99.90
4002;DHT22;2015;48.670;9.060;2023-11-18T12:54:23;8.00;99.90
4002;DHT22;2015;48.670;9.060;2023-11-18T12:56:56;8.00;99.90
4002;DHT22;2015;48.670;9.060;2023-11-18T12:59:28;8.10;99.90
4002;DHT22;2015;48.670;9.060;2023-11-18T13:02:02;8.10;99.90
4002;DHT22;2015;48.670;9.060;2023-11-18T13:04:35;8.10;99.90
4002;DHT22;2015;48.670;9.060;2023-11-18T13:07:11;8.00;99.90
4002;DHT22;2015;48.670;9.060;2023-11-18T13:09:45;8.00;99.90
4002;DHT22;2015;48.670;9.060;2023-11-18T13:12:17;8.00;99.90
4002;DHT22;2015;48.670;9.060;2023-11-18T13:14:51;7.90;99.90
4002;DHT22;2015;48.670;9.060;2023-11-18T13:17:23;7.90;99.90
4002;DHT22;2015;48.670;9.060;2023-11-18T13:19:55;7.80;99.90
4002;DHT22;2015;48.670;9.060;2023-11-18T13:22:30;7.80;99.90
4002;DHT22;2015;48.670;9.060;2023-11-18T13:25:16;7.90;99.90
4002;DHT22;2015;48.670;9.060;2023-11-18T13:27:49;7.80;99.90
4002;DHT22;2015;48.670;9.060;2023-11-18T13:30:21;7.80;99.90
4002;DHT22;2015;48.670;9.060;2023-11-18T13:32:55;7.70;99.90
4002;DHT22;2015;48.670;9.060;2023-11-18T13:35:27;7.60;99.90
4002;DHT22;2015;48.670;9.060;2023-11-18T13:38:01;7.60;99.90
4002;DHT22;2015;48.670;9.060;2023-11-18T13:40:46;7.60;99.90
4002;DHT22;2015;48.670;9.060;2023-11-18T13:43:19;7.60;99.90
4002;DHT22;2015;48.670;9.060;2023-11-18T13:45:53;7.60;99.90
4002;DHT22;2015;48.670;9.060;2023-11-18T13:48:27;7.60;99.90
4002;DHT22;2015;48.670;9.060;2023-11-18T13:50:59;7.50;99.90
4002;DHT22;2015;48.670;9.060;2023-11-18T13:53:31;7.50;99.90
4002;DHT22;2015;48.670;9.060;2023-11-18T13:56:04;7.50;99.90
4002;DHT22;2015;48.670;9.060;2023-11-18T13:58:36;7.50;99.90
4002;DHT22;2015;48.670;9.060;2023-11-18T14:01:11;7.50;99.90
4002;DHT22;2015;48.670;9.060;2023-11-18T14:03:46;7.40;99.90
4002;DHT22;2015;48.670;9.060;2023-11-18T14:06:22;7.50;99.90
4002;DHT22;2015;48.670;9.060;2023-11-18T14:08:54;7.50;99.90
4002;DHT22;2015;48.670;9.060;2023-11-18T14:11:26;7.50;99.90
4002;DHT22;2015;48.670;9.060;2023-11-18T14:13:58;7.50;99.90
4002;DHT22;2015;48.670;9.060;2023-11-18T14:16:30;7.60;99.90
4002;DHT22;2015;48.670;9.060;2023-11-18T14:19:02;7.60;99.90
4002;DHT22;2015;48.670;9.060;2023-11-18T14:21:34;7.60;99.90
4002;DHT22;2015;48.670;9.060;2023-11-18T14:24:10;7.60;99.90
4002;DHT22;2015;48.670;9.060;2023-11-18T14:26:44;7.60;99.90
4002;DHT22;2015;48.670;9.060;2023-11-18T14:29:15;7.60;99.90
4002;DHT22;2015;48.670;9.060;2023-11-18T14:31:47;7.50;99.90
4002;DHT22;2015;48.670;9.060;2023-11-18T14:34:19;7.50;99.90
4002;DHT22;2015;48.670;9.060;2023-11-18T14:36:50;7.50;99.90
4002;DHT22;2015;48.670;9.060;2023-11-18T14:39:22;7.50;99.90
4002;DHT22;2015;48.670;9.060;2023-11-18T14:41:55;7.50;99.90
4002;DHT22;2015;48.670;9.060;2023-11-18T14:44:27;7.60;99.90
4002;DHT22;2015;48.670;9.060;2023-11-18T14:46:58;7.60;99.90
4002;DHT22;2015;48.670;9.060;2023-11-18T14:49:31;7.50;99.90
4002;DHT22;2015;48.670;9.060;2023-11-18T14:52:03;7.60;99.90
4002;DHT22;2015;48.670;9.060;2023-11-18T14:54:35;7.60;99.90
4002;DHT22;2015;48.670;9.060;2023-11-18T14:57:08;7.60;99.90
4002;DHT22;2015;48.670;9.060;2023-11-18T14:59:40;7.60;99.90
4002;DHT22;2015;48.670;9.060;2023-11-18T15:02:12;7.60;99.90
4002;DHT22;2015;48.670;9.060;2023-11-18T15:04:44;7.60;99.90
4002;DHT22;2015;48.670;9.060;2023-11-18T15:07:15;7.50;99.90
4002;DHT22;2015;48.670;9.060;2023-11-18T15:09:47;7.50;99.90
4002;DHT22;2015;48.670;9.060;2023-11-18T15:12:19;7.50;99.90
4002;DHT22;2015;48.670;9.060;2023-11-18T15:14:51;7.50;99.90
4002;DHT22;2015;48.670;9.060;2023-11-18T15:17:23;7.40;99.90
4002;DHT22;2015;48.670;9.060;2023-11-18T15:20:03;7.40;99.90
4002;DHT22;2015;48.670;9.060;2023-11-18T15:22:38;7.40;99.90
4002;DHT22;2015;48.670;9.060;2023-11-18T15:25:10;7.40;99.90
4002;DHT22;2015;48.670;9.060;2023-11-18T15:27:44;7.40;99.90
4002;DHT22;2015;48.670;9.060;2023-11-18T15:30:17;7.40;99.90
4002;DHT22;2015;48.670;9.060;2023-11-18T15:32:49;7.40;99.90
4002;DHT22;2015;48.670;9.060;2023-11-18T15:35:21;7.40;99.90
4002;DHT22;2015;48.670;9.060;2023-11-18T15:37:53;7.40;99.90
4002;DHT22;2015;48.670;9.060;2023-11-18T15:40:24;7.40;99.90
4002;DHT22;2015;48.670;9.060;2023-11-18T15:42:57;7.40;99.90
4002;DHT22;2015;48.670;9.060;2023-11-18T15:45:29;7.40;99.90
4002;DHT22;2015;48.670;9.060;2023-11-18T15:48:01;7.40;99.90
4002;DHT22;2015;48.670;9.060;2023-11-18T15:50:37;7.30;99.90
4002;DHT22;2015;48.670;9.060;2023-11-18T15:53:11;7.40;99.90
4002;DHT22;2015;48.670;9.060;2023-11-18T15:55:46;7.40;99.90
4002;DHT22;2015;48.670;9.060;2023-11-18T15:58:21;7.30;99.90
4002;DHT22;2015;48.670;9.060;2023-11-18T16:00:57;7.30;99.90
4002;DHT22;2015;48.670;9.060;2023-11-18T16:03:29;7.30;99.90
4002;DHT22;2015;48.670;9.060;2023-11-18T16:06:01;7.30;99.90
4002;DHT22;2015;48.670;9.060;2023-11-18T16:08:33;7.30;99.90
4002;DHT22;2015;48.670;9.060;2023-11-18T16:11:05;7.30;99.90
4002;DHT22;2015;48.670;9.060;2023-11-18T16:13:37;7.30;99.90
4002;DHT22;2015;48.670;9.060;2023-11-18T16:16:09;7.30;99.90
4002;DHT22;2015;48.670;9.060;2023-11-18T16:18:40;7.20;99.90
4002;DHT22;2015;48.670;9.060;2023-11-18T16:21:14;7.20;99.90
4002;DHT22;2015;48.670;9.060;2023-11-18T16:23:49;7.20;99.90
4002;DHT22;2015;48.670;9.060;2023-11-18T16:26:21;7.10;99.90
4002;DHT22;2015;48.670;9.060;2023-11-18T16:28:52;7.20;99.90
4002;DHT22;2015;48.670;9.060;2023-11-18T16:31:24;7.30;99.90
4002;DHT22;2015;48.670;9.060;2023-11-18T16:33:56;7.40;99.90
4002;DHT22;2015;48.670;9.060;2023-11-18T16:36:28;7.30;99.90
4002;DHT22;2015;48.670;9.060;2023-11-18T16:39:00;7.40;99.90
4002;DHT22;2015;48.670;9.060;2023-11-18T16:41:32;7.30;99.90
4002;DHT22;2015;48.670;9.060;2023-11-18T16:44:16;7.30;99.90
4002;DHT22;2015;48.670;9.060;2023-11-18T16:46:48;7.30;99.90
4002;DHT22;2015;48.670;9.060;2023-11-18T16:49:21;7.30;99.90
4002;DHT22;2015;48.670;9.060;2023-11-18T16:51:55;7.20;99.90
4002;DHT22;2015;48.670;9.060;2023-11-18T16:54:31;7.20;99.90
4002;DHT22;2015;48.670;9.060;2023-11-18T16:57:11;7.20;99.90
4002;DHT22;2015;48.670;9.060;2023-11-18T16:59:44;7.10;99.90
4002;DHT22;2015;48.670;9.060;2023-11-18T17:02:16;7.10;99.90
4002;DHT22;2015;48.670;9.060;2023-11-18T17:04:50;7.00;99.90
4002;DHT22;2015;48.670;9.060;2023-11-18T17:07:21;7.00;99.90
4002;DHT22;2015;48.670;9.060;2023-11-18T17:09:53;7.00;99.90
4002;DHT22;2015;48.670;9.060;2023-11-18T17:12:26;7.00;99.90
4002;DHT22;2015;48.670;9.060;2023-11-18T17:14:57;6.90;99.90